Weather at Lamezia Terme Airport

Public forecast

Using degrees Celsius for public forecast. Weather courtesy of forecast.io.

Current aviation weather report (METAR) for Lamezia Terme Airport

Retrieved 2021/01/25 03:20 UTC (0 seconds ago):

LICA 250320Z AUTO 29016KT 9999 RA OVC030 11/08 Q1009

Aviation forecast (TAF) for Lamezia Terme Airport

Retrieved 2021-01-25 00:00 UTC (3 hours ago):

TAF LICA 242300Z 2500/2524 27018G28KT 9999 SCT030 TEMPO 2521/2524 TSRA